sensor_id;sensor_type;location;lat;lon;timestamp;P1;P2;P0
73305;PMS5003;61530;51.158;0.880;2023-11-21T00:00:03;24;24;13
73305;PMS5003;61530;51.158;0.880;2023-11-21T00:01:02;26;24;20
73305;PMS5003;61530;51.158;0.880;2023-11-21T00:02:03;19;19;13
73305;PMS5003;61530;51.158;0.880;2023-11-21T00:03:03;27;27;21
73305;PMS5003;61530;51.158;0.880;2023-11-21T00:04:04;19;19;10
73305;PMS5003;61530;51.158;0.880;2023-11-21T00:05:04;17;17;15
73305;PMS5003;61530;51.158;0.880;2023-11-21T00:06:05;33;33;28
73305;PMS5003;61530;51.158;0.880;2023-11-21T00:07:06;13;13;8
73305;PMS5003;61530;51.158;0.880;2023-11-21T00:08:06;11;8;5
73305;PMS5003;61530;51.158;0.880;2023-11-21T00:09:07;26;26;21
73305;PMS5003;61530;51.158;0.880;2023-11-21T00:10:08;15;14;8
73305;PMS5003;61530;51.158;0.880;2023-11-21T00:11:08;21;21;18
73305;PMS5003;61530;51.158;0.880;2023-11-21T00:12:08;20;20;14
73305;PMS5003;61530;51.158;0.880;2023-11-21T00:13:09;13;13;6
73305;PMS5003;61530;51.158;0.880;2023-11-21T00:14:09;13;11;6
73305;PMS5003;61530;51.158;0.880;2023-11-21T00:15:10;14;13;6
73305;PMS5003;61530;51.158;0.880;2023-11-21T00:16:10;11;10;6
73305;PMS5003;61530;51.158;0.880;2023-11-21T00:17:11;15;13;6
73305;PMS5003;61530;51.158;0.880;2023-11-21T00:18:11;10;10;7
73305;PMS5003;61530;51.158;0.880;2023-11-21T00:19:12;13;11;6
73305;PMS5003;61530;51.158;0.880;2023-11-21T00:20:13;18;16;9
73305;PMS5003;61530;51.158;0.880;2023-11-21T00:21:13;22;22;17
73305;PMS5003;61530;51.158;0.880;2023-11-21T00:22:14;10;10;7
73305;PMS5003;61530;51.158;0.880;2023-11-21T00:23:14;11;11;5
73305;PMS5003;61530;51.158;0.880;2023-11-21T00:24:15;13;10;6
73305;PMS5003;61530;51.158;0.880;2023-11-21T00:25:15;10;10;5
73305;PMS5003;61530;51.158;0.880;2023-11-21T00:26:16;9;9;5
73305;PMS5003;61530;51.158;0.880;2023-11-21T00:27:16;13;10;6
73305;PMS5003;61530;51.158;0.880;2023-11-21T00:28:17;11;10;6
73305;PMS5003;61530;51.158;0.880;2023-11-21T00:29:17;9;9;6
73305;PMS5003;61530;51.158;0.880;2023-11-21T00:30:18;13;11;7
73305;PMS5003;61530;51.158;0.880;2023-11-21T00:31:18;11;10;7
73305;PMS5003;61530;51.158;0.880;2023-11-21T00:32:19;10;10;6
73305;PMS5003;61530;51.158;0.880;2023-11-21T00:33:19;15;11;7
73305;PMS5003;61530;51.158;0.880;2023-11-21T00:34:20;9;8;6
73305;PMS5003;61530;51.158;0.880;2023-11-21T00:35:20;9;9;6
73305;PMS5003;61530;51.158;0.880;2023-11-21T00:36:21;10;10;8
73305;PMS5003;61530;51.158;0.880;2023-11-21T00:37:21;9;9;6
73305;PMS5003;61530;51.158;0.880;2023-11-21T00:38:22;10;9;5
73305;PMS5003;61530;51.158;0.880;2023-11-21T00:39:22;11;10;6
73305;PMS5003;61530;51.158;0.880;2023-11-21T00:40:23;11;9;5
73305;PMS5003;61530;51.158;0.880;2023-11-21T00:41:23;10;9;5
73305;PMS5003;61530;51.158;0.880;2023-11-21T00:42:24;10;10;5
73305;PMS5003;61530;51.158;0.880;2023-11-21T00:43:24;10;10;6
73305;PMS5003;61530;51.158;0.880;2023-11-21T00:44:25;10;8;5
73305;PMS5003;61530;51.158;0.880;2023-11-21T00:45:25;9;9;5
73305;PMS5003;61530;51.158;0.880;2023-11-21T00:46:26;11;11;6
73305;PMS5003;61530;51.158;0.880;2023-11-21T00:47:26;8;8;5
73305;PMS5003;61530;51.158;0.880;2023-11-21T00:48:27;10;10;5
73305;PMS5003;61530;51.158;0.880;2023-11-21T00:49:27;8;8;5
73305;PMS5003;61530;51.158;0.880;2023-11-21T00:50:28;9;9;5
73305;PMS5003;61530;51.158;0.880;2023-11-21T00:51:28;11;11;6
73305;PMS5003;61530;51.158;0.880;2023-11-21T00:52:29;9;9;5
73305;PMS5003;61530;51.158;0.880;2023-11-21T00:53:29;22;22;18
73305;PMS5003;61530;51.158;0.880;2023-11-21T00:54:30;14;14;8
73305;PMS5003;61530;51.158;0.880;2023-11-21T00:55:30;20;19;16
73305;PMS5003;61530;51.158;0.880;2023-11-21T00:56:31;16;15;11
73305;PMS5003;61530;51.158;0.880;2023-11-21T00:57:31;24;22;18
73305;PMS5003;61530;51.158;0.880;2023-11-21T00:58:32;24;24;14
73305;PMS5003;61530;51.158;0.880;2023-11-21T00:59:32;17;16;14
73305;PMS5003;61530;51.158;0.880;2023-11-21T01:00:33;14;14;7
73305;PMS5003;61530;51.158;0.880;2023-11-21T01:01:33;22;21;16
73305;PMS5003;61530;51.158;0.880;2023-11-21T01:02:34;14;12;9
73305;PMS5003;61530;51.158;0.880;2023-11-21T01:03:34;19;19;14
73305;PMS5003;61530;51.158;0.880;2023-11-21T01:04:35;24;24;20
73305;PMS5003;61530;51.158;0.880;2023-11-21T01:05:35;20;20;18
73305;PMS5003;61530;51.158;0.880;2023-11-21T01:06:36;17;17;13
73305;PMS5003;61530;51.158;0.880;2023-11-21T01:07:36;17;16;11
73305;PMS5003;61530;51.158;0.880;2023-11-21T01:08:37;16;15;8
73305;PMS5003;61530;51.158;0.880;2023-11-21T01:09:37;18;17;11
73305;PMS5003;61530;51.158;0.880;2023-11-21T01:10:38;21;21;18
73305;PMS5003;61530;51.158;0.880;2023-11-21T01:11:38;18;16;10
73305;PMS5003;61530;51.158;0.880;2023-11-21T01:12:39;18;18;8
73305;PMS5003;61530;51.158;0.880;2023-11-21T01:13:39;17;17;13
73305;PMS5003;61530;51.158;0.880;2023-11-21T01:14:40;16;15;7
73305;PMS5003;61530;51.158;0.880;2023-11-21T01:15:40;20;18;8
73305;PMS5003;61530;51.158;0.880;2023-11-21T01:16:41;16;16;10
73305;PMS5003;61530;51.158;0.880;2023-11-21T01:17:41;22;22;17
73305;PMS5003;61530;51.158;0.880;2023-11-21T01:18:42;18;17;10
73305;PMS5003;61530;51.158;0.880;2023-11-21T01:19:42;18;18;16
73305;PMS5003;61530;51.158;0.880;2023-11-21T01:20:43;23;22;18
73305;PMS5003;61530;51.158;0.880;2023-11-21T01:21:43;26;23;19
73305;PMS5003;61530;51.158;0.880;2023-11-21T01:22:44;26;23;18
73305;PMS5003;61530;51.158;0.880;2023-11-21T01:23:44;24;22;19
73305;PMS5003;61530;51.158;0.880;2023-11-21T01:24:45;24;23;18
73305;PMS5003;61530;51.158;0.880;2023-11-21T01:25:45;15;15;11
73305;PMS5003;61530;51.158;0.880;2023-11-21T01:26:46;20;19;15
73305;PMS5003;61530;51.158;0.880;2023-11-21T01:27:46;24;22;18
73305;PMS5003;61530;51.158;0.880;2023-11-21T01:28:47;17;17;7
73305;PMS5003;61530;51.158;0.880;2023-11-21T01:29:47;11;11;6
73305;PMS5003;61530;51.158;0.880;2023-11-21T01:30:48;14;13;10
73305;PMS5003;61530;51.158;0.880;2023-11-21T01:31:48;19;19;16
73305;PMS5003;61530;51.158;0.880;2023-11-21T01:32:49;21;21;17
73305;PMS5003;61530;51.158;0.880;2023-11-21T01:33:49;24;23;19
73305;PMS5003;61530;51.158;0.880;2023-11-21T01:34:50;23;23;20
73305;PMS5003;61530;51.158;0.880;2023-11-21T01:35:50;16;16;7
73305;PMS5003;61530;51.158;0.880;2023-11-21T01:36:51;17;17;13
73305;PMS5003;61530;51.158;0.880;2023-11-21T01:37:51;16;14;6
73305;PMS5003;61530;51.158;0.880;2023-11-21T01:38:52;16;16;13
73305;PMS5003;61530;51.158;0.880;2023-11-21T01:39:52;14;14;9
73305;PMS5003;61530;51.158;0.880;2023-11-21T01:40:53;19;19;14
73305;PMS5003;61530;51.158;0.880;2023-11-21T01:41:53;24;23;18
73305;PMS5003;61530;51.158;0.880;2023-11-21T01:42:54;27;26;21
73305;PMS5003;61530;51.158;0.880;2023-11-21T01:43:54;19;19;10
73305;PMS5003;61530;51.158;0.880;2023-11-21T01:44:55;15;15;11
73305;PMS5003;61530;51.158;0.880;2023-11-21T01:45:56;13;13;8
73305;PMS5003;61530;51.158;0.880;2023-11-21T01:46:56;20;20;15
73305;PMS5003;61530;51.158;0.880;2023-11-21T01:47:57;26;24;19
73305;PMS5003;61530;51.158;0.880;2023-11-21T01:48:57;16;16;7
73305;PMS5003;61530;51.158;0.880;2023-11-21T01:49:58;20;20;14
73305;PMS5003;61530;51.158;0.880;2023-11-21T01:50:58;28;26;21
73305;PMS5003;61530;51.158;0.880;2023-11-21T01:51:59;14;14;9
73305;PMS5003;61530;51.158;0.880;2023-11-21T01:52:59;21;21;15
73305;PMS5003;61530;51.158;0.880;2023-11-21T01:54:00;18;17;13
73305;PMS5003;61530;51.158;0.880;2023-11-21T01:55:00;21;21;19
73305;PMS5003;61530;51.158;0.880;2023-11-21T01:56:01;21;21;17
73305;PMS5003;61530;51.158;0.880;2023-11-21T01:57:01;10;9;6
73305;PMS5003;61530;51.158;0.880;2023-11-21T01:58:02;9;9;5
73305;PMS5003;61530;51.158;0.880;2023-11-21T01:59:02;10;9;6
73305;PMS5003;61530;51.158;0.880;2023-11-21T02:00:03;11;8;5
73305;PMS5003;61530;51.158;0.880;2023-11-21T02:01:03;9;9;5
73305;PMS5003;61530;51.158;0.880;2023-11-21T02:02:04;9;9;6
73305;PMS5003;61530;51.158;0.880;2023-11-21T02:03:04;9;9;5
73305;PMS5003;61530;51.158;0.880;2023-11-21T02:04:05;10;10;6
73305;PMS5003;61530;51.158;0.880;2023-11-21T02:05:06;8;8;5
73305;PMS5003;61530;51.158;0.880;2023-11-21T02:06:11;8;8;5
73305;PMS5003;61530;51.158;0.880;2023-11-21T02:07:12;8;8;4
73305;PMS5003;61530;51.158;0.880;2023-11-21T02:08:12;9;9;5
73305;PMS5003;61530;51.158;0.880;2023-11-21T02:09:13;10;8;4
73305;PMS5003;61530;51.158;0.880;2023-11-21T02:10:16;9;7;4
73305;PMS5003;61530;51.158;0.880;2023-11-21T02:11:18;8;8;4
73305;PMS5003;61530;51.158;0.880;2023-11-21T02:12:18;8;8;5
73305;PMS5003;61530;51.158;0.880;2023-11-21T02:13:19;8;8;4
73305;PMS5003;61530;51.158;0.880;2023-11-21T02:14:19;9;9;5
73305;PMS5003;61530;51.158;0.880;2023-11-21T02:15:20;8;8;5
73305;PMS5003;61530;51.158;0.880;2023-11-21T02:16:21;8;8;5
73305;PMS5003;61530;51.158;0.880;2023-11-21T02:17:21;20;20;16
73305;PMS5003;61530;51.158;0.880;2023-11-21T02:18:23;13;11;5
73305;PMS5003;61530;51.158;0.880;2023-11-21T02:19:23;14;14;10
73305;PMS5003;61530;51.158;0.880;2023-11-21T02:20:24;22;22;19
73305;PMS5003;61530;51.158;0.880;2023-11-21T02:21:24;15;15;11
73305;PMS5003;61530;51.158;0.880;2023-11-21T02:22:25;10;10;6
73305;PMS5003;61530;51.158;0.880;2023-11-21T02:23:25;17;16;13
73305;PMS5003;61530;51.158;0.880;2023-11-21T02:24:26;27;27;21
73305;PMS5003;61530;51.158;0.880;2023-11-21T02:25:27;24;24;19
73305;PMS5003;61530;51.158;0.880;2023-11-21T02:26:27;20;20;13
73305;PMS5003;61530;51.158;0.880;2023-11-21T02:27:27;13;13;8
73305;PMS5003;61530;51.158;0.880;2023-11-21T02:28:28;13;11;8
73305;PMS5003;61530;51.158;0.880;2023-11-21T02:29:28;13;9;6
73305;PMS5003;61530;51.158;0.880;2023-11-21T02:30:29;11;11;6
73305;PMS5003;61530;51.158;0.880;2023-11-21T02:31:29;14;13;6
73305;PMS5003;61530;51.158;0.880;2023-11-21T02:32:30;10;10;5
73305;PMS5003;61530;51.158;0.880;2023-11-21T02:33:30;10;10;5
73305;PMS5003;61530;51.158;0.880;2023-11-21T02:34:31;10;10;6
73305;PMS5003;61530;51.158;0.880;2023-11-21T02:35:31;11;11;6
73305;PMS5003;61530;51.158;0.880;2023-11-21T02:36:32;17;17;8
73305;PMS5003;61530;51.158;0.880;2023-11-21T02:37:32;21;21;16
73305;PMS5003;61530;51.158;0.880;2023-11-21T02:38:33;19;16;13
73305;PMS5003;61530;51.158;0.880;2023-11-21T02:39:33;28;24;19
73305;PMS5003;61530;51.158;0.880;2023-11-21T02:40:34;27;27;21
73305;PMS5003;61530;51.158;0.880;2023-11-21T02:41:34;21;21;18
73305;PMS5003;61530;51.158;0.880;2023-11-21T02:42:35;14;13;6
73305;PMS5003;61530;51.158;0.880;2023-11-21T02:43:35;21;20;15
73305;PMS5003;61530;51.158;0.880;2023-11-21T02:44:36;17;15;10
73305;PMS5003;61530;51.158;0.880;2023-11-21T02:45:36;23;21;16
73305;PMS5003;61530;51.158;0.880;2023-11-21T02:46:37;23;23;20
73305;PMS5003;61530;51.158;0.880;2023-11-21T02:47:43;16;16;8
73305;PMS5003;61530;51.158;0.880;2023-11-21T02:48:43;18;18;14
73305;PMS5003;61530;51.158;0.880;2023-11-21T02:49:44;14;14;7
73305;PMS5003;61530;51.158;0.880;2023-11-21T02:50:44;17;17;13
73305;PMS5003;61530;51.158;0.880;2023-11-21T02:51:45;21;21;17
73305;PMS5003;61530;51.158;0.880;2023-11-21T02:52:45;13;13;9
73305;PMS5003;61530;51.158;0.880;2023-11-21T02:53:46;19;19;15
73305;PMS5003;61530;51.158;0.880;2023-11-21T02:54:47;23;22;20
73305;PMS5003;61530;51.158;0.880;2023-11-21T02:55:47;21;21;20
73305;PMS5003;61530;51.158;0.880;2023-11-21T02:56:48;22;22;19
73305;PMS5003;61530;51.158;0.880;2023-11-21T02:57:48;22;22;18
73305;PMS5003;61530;51.158;0.880;2023-11-21T02:58:49;15;14;7
73305;PMS5003;61530;51.158;0.880;2023-11-21T02:59:49;13;10;8
73305;PMS5003;61530;51.158;0.880;2023-11-21T03:00:50;15;15;5
73305;PMS5003;61530;51.158;0.880;2023-11-21T03:01:50;18;17;11
73305;PMS5003;61530;51.158;0.880;2023-11-21T03:02:51;20;19;16
73305;PMS5003;61530;51.158;0.880;2023-11-21T03:03:51;21;21;17
73305;PMS5003;61530;51.158;0.880;2023-11-21T03:04:52;26;24;20
73305;PMS5003;61530;51.158;0.880;2023-11-21T03:05:52;15;15;7
73305;PMS5003;61530;51.158;0.880;2023-11-21T03:06:54;16;15;11
73305;PMS5003;61530;51.158;0.880;2023-11-21T03:07:55;22;21;18
73305;PMS5003;61530;51.158;0.880;2023-11-21T03:08:55;27;26;22
73305;PMS5003;61530;51.158;0.880;2023-11-21T03:09:56;22;22;19
73305;PMS5003;61530;51.158;0.880;2023-11-21T03:10:56;17;15;11
73305;PMS5003;61530;51.158;0.880;2023-11-21T03:11:57;10;10;6
73305;PMS5003;61530;51.158;0.880;2023-11-21T03:12:57;9;9;6
73305;PMS5003;61530;51.158;0.880;2023-11-21T03:13:58;9;9;3
73305;PMS5003;61530;51.158;0.880;2023-11-21T03:14:58;11;7;3
73305;PMS5003;61530;51.158;0.880;2023-11-21T03:15:59;6;6;3
73305;PMS5003;61530;51.158;0.880;2023-11-21T03:16:59;5;5;3
73305;PMS5003;61530;51.158;0.880;2023-11-21T03:18:00;3;3;2
73305;PMS5003;61530;51.158;0.880;2023-11-21T03:19:00;4;4;2
73305;PMS5003;61530;51.158;0.880;2023-11-21T03:20:01;4;4;3
73305;PMS5003;61530;51.158;0.880;2023-11-21T03:21:01;3;3;2
73305;PMS5003;61530;51.158;0.880;2023-11-21T03:22:02;7;3;2
73305;PMS5003;61530;51.158;0.880;2023-11-21T03:23:02;3;3;2
73305;PMS5003;61530;51.158;0.880;2023-11-21T03:24:03;2;2;2
73305;PMS5003;61530;51.158;0.880;2023-11-21T03:25:04;3;3;2
73305;PMS5003;61530;51.158;0.880;2023-11-21T03:26:04;3;3;2
73305;PMS5003;61530;51.158;0.880;2023-11-21T03:27:04;3;3;2
73305;PMS5003;61530;51.158;0.880;2023-11-21T03:28:05;4;3;2
73305;PMS5003;61530;51.158;0.880;2023-11-21T03:29:05;3;3;1
73305;PMS5003;61530;51.158;0.880;2023-11-21T03:30:07;3;3;2
73305;PMS5003;61530;51.158;0.880;2023-11-21T03:31:06;3;3;2
73305;PMS5003;61530;51.158;0.880;2023-11-21T03:32:07;3;3;2
73305;PMS5003;61530;51.158;0.880;2023-11-21T03:33:07;4;3;1
73305;PMS5003;61530;51.158;0.880;2023-11-21T03:34:11;3;3;1
73305;PMS5003;61530;51.158;0.880;2023-11-21T03:35:08;4;3;1
73305;PMS5003;61530;51.158;0.880;2023-11-21T03:36:09;2;2;1
73305;PMS5003;61530;51.158;0.880;2023-11-21T03:37:09;1;1;1
73305;PMS5003;61530;51.158;0.880;2023-11-21T03:38:10;2;2;1
73305;PMS5003;61530;51.158;0.880;2023-11-21T03:39:10;3;2;1
73305;PMS5003;61530;51.158;0.880;2023-11-21T03:40:11;2;2;1
73305;PMS5003;61530;51.158;0.880;2023-11-21T03:41:11;2;2;1
73305;PMS5003;61530;51.158;0.880;2023-11-21T03:42:12;2;2;1
73305;PMS5003;61530;51.158;0.880;2023-11-21T03:43:13;2;2;1
73305;PMS5003;61530;51.158;0.880;2023-11-21T03:44:13;1;1;1
73305;PMS5003;61530;51.158;0.880;2023-11-21T03:45:13;2;1;1
73305;PMS5003;61530;51.158;0.880;2023-11-21T03:46:14;2;1;1
73305;PMS5003;61530;51.158;0.880;2023-11-21T03:47:14;1;1;0
73305;PMS5003;61530;51.158;0.880;2023-11-21T03:48:15;3;3;2
73305;PMS5003;61530;51.158;0.880;2023-11-21T03:49:15;3;3;1
73305;PMS5003;61530;51.158;0.880;2023-11-21T03:50:16;3;3;1
73305;PMS5003;61530;51.158;0.880;2023-11-21T03:51:16;1;1;1
73305;PMS5003;61530;51.158;0.880;2023-11-21T03:52:17;1;1;0
73305;PMS5003;61530;51.158;0.880;2023-11-21T03:53:17;5;5;3
73305;PMS5003;61530;51.158;0.880;2023-11-21T03:54:18;8;8;6
73305;PMS5003;61530;51.158;0.880;2023-11-21T03:55:18;1;1;1
73305;PMS5003;61530;51.158;0.880;2023-11-21T03:56:19;3;3;1
73305;PMS5003;61530;51.158;0.880;2023-11-21T03:57:19;2;2;1
73305;PMS5003;61530;51.158;0.880;2023-11-21T03:58:20;2;2;1
73305;PMS5003;61530;51.158;0.880;2023-11-21T03:59:20;1;1;1
73305;PMS5003;61530;51.158;0.880;2023-11-21T04:00:21;2;2;1
73305;PMS5003;61530;51.158;0.880;2023-11-21T04:01:21;1;1;0
73305;PMS5003;61530;51.158;0.880;2023-11-21T04:02:22;1;1;0
73305;PMS5003;61530;51.158;0.880;2023-11-21T04:03:22;1;1;0
73305;PMS5003;61530;51.158;0.880;2023-11-21T04:04:23;1;1;1
73305;PMS5003;61530;51.158;0.880;2023-11-21T04:05:23;1;1;0
73305;PMS5003;61530;51.158;0.880;2023-11-21T04:06:24;1;1;1
73305;PMS5003;61530;51.158;0.880;2023-11-21T04:07:25;2;2;1
73305;PMS5003;61530;51.158;0.880;2023-11-21T04:08:25;3;3;1
73305;PMS5003;61530;51.158;0.880;2023-11-21T04:09:26;3;3;1
73305;PMS5003;61530;51.158;0.880;2023-11-21T04:10:26;3;3;2
73305;PMS5003;61530;51.158;0.880;2023-11-21T04:11:27;2;2;1
73305;PMS5003;61530;51.158;0.880;2023-11-21T04:12:27;4;4;3
73305;PMS5003;61530;51.158;0.880;2023-11-21T04:13:28;2;2;1
73305;PMS5003;61530;51.158;0.880;2023-11-21T04:14:28;3;3;1
73305;PMS5003;61530;51.158;0.880;2023-11-21T04:15:29;3;3;2
73305;PMS5003;61530;51.158;0.880;2023-11-21T04:16:29;2;2;1
73305;PMS5003;61530;51.158;0.880;2023-11-21T04:17:30;3;3;2
73305;PMS5003;61530;51.158;0.880;2023-11-21T04:18:30;4;2;1
73305;PMS5003;61530;51.158;0.880;2023-11-21T04:19:31;5;3;2
73305;PMS5003;61530;51.158;0.880;2023-11-21T04:20:31;2;2;1
73305;PMS5003;61530;51.158;0.880;2023-11-21T04:21:32;5;5;2
73305;PMS5003;61530;51.158;0.880;2023-11-21T04:22:32;5;4;3
73305;PMS5003;61530;51.158;0.880;2023-11-21T04:23:33;3;3;2
73305;PMS5003;61530;51.158;0.880;2023-11-21T04:24:35;2;2;2
73305;PMS5003;61530;51.158;0.880;2023-11-21T04:25:36;3;3;2
73305;PMS5003;61530;51.158;0.880;2023-11-21T04:26:36;3;3;1
73305;PMS5003;61530;51.158;0.880;2023-11-21T04:27:37;4;2;2
73305;PMS5003;61530;51.158;0.880;2023-11-21T04:28:37;2;2;1
73305;PMS5003;61530;51.158;0.880;2023-11-21T04:29:38;2;2;1
73305;PMS5003;61530;51.158;0.880;2023-11-21T04:30:38;3;3;2
73305;PMS5003;61530;51.158;0.880;2023-11-21T04:31:39;3;3;2
73305;PMS5003;61530;51.158;0.880;2023-11-21T04:32:39;2;2;1
73305;PMS5003;61530;51.158;0.880;2023-11-21T04:33:40;2;2;1
73305;PMS5003;61530;51.158;0.880;2023-11-21T04:34:46;2;2;1
73305;PMS5003;61530;51.158;0.880;2023-11-21T04:35:46;2;2;1
73305;PMS5003;61530;51.158;0.880;2023-11-21T04:36:47;2;2;1
73305;PMS5003;61530;51.158;0.880;2023-11-21T04:37:47;2;2;1
73305;PMS5003;61530;51.158;0.880;2023-11-21T04:38:48;2;2;1
73305;PMS5003;61530;51.158;0.880;2023-11-21T04:39:48;1;1;1
73305;PMS5003;61530;51.158;0.880;2023-11-21T04:40:49;3;3;2
73305;PMS5003;61530;51.158;0.880;2023-11-21T04:41:49;1;1;1
73305;PMS5003;61530;51.158;0.880;2023-11-21T04:42:50;1;1;1
73305;PMS5003;61530;51.158;0.880;2023-11-21T04:43:50;4;4;2
73305;PMS5003;61530;51.158;0.880;2023-11-21T04:44:51;2;2;2
73305;PMS5003;61530;51.158;0.880;2023-11-21T04:45:51;3;2;1
73305;PMS5003;61530;51.158;0.880;2023-11-21T04:46:52;2;2;2
73305;PMS5003;61530;51.158;0.880;2023-11-21T04:47:52;2;2;1
73305;PMS5003;61530;51.158;0.880;2023-11-21T04:48:53;3;3;1
73305;PMS5003;61530;51.158;0.880;2023-11-21T04:49:53;3;3;2
73305;PMS5003;61530;51.158;0.880;2023-11-21T04:50:54;3;3;2
73305;PMS5003;61530;51.158;0.880;2023-11-21T04:51:54;3;3;2
73305;PMS5003;61530;51.158;0.880;2023-11-21T04:52:55;4;4;1
73305;PMS5003;61530;51.158;0.880;2023-11-21T04:53:55;4;3;2
73305;PMS5003;61530;51.158;0.880;2023-11-21T04:54:56;6;4;2
73305;PMS5003;61530;51.158;0.880;2023-11-21T04:55:56;3;3;2
73305;PMS5003;61530;51.158;0.880;2023-11-21T04:56:57;3;3;1
73305;PMS5003;61530;51.158;0.880;2023-11-21T04:57:57;4;3;2
73305;PMS5003;61530;51.158;0.880;2023-11-21T04:58:58;4;3;2
73305;PMS5003;61530;51.158;0.880;2023-11-21T04:59:58;4;4;2
73305;PMS5003;61530;51.158;0.880;2023-11-21T05:00:59;7;7;3
73305;PMS5003;61530;51.158;0.880;2023-11-21T05:02:00;5;4;2
73305;PMS5003;61530;51.158;0.880;2023-11-21T05:03:00;3;3;2
73305;PMS5003;61530;51.158;0.880;2023-11-21T05:04:01;6;5;2
73305;PMS5003;61530;51.158;0.880;2023-11-21T05:05:02;3;3;2
73305;PMS5003;61530;51.158;0.880;2023-11-21T05:06:03;7;5;2
73305;PMS5003;61530;51.158;0.880;2023-11-21T05:07:03;5;5;2
73305;PMS5003;61530;51.158;0.880;2023-11-21T05:08:04;7;5;3
73305;PMS5003;61530;51.158;0.880;2023-11-21T05:09:04;5;5;3
73305;PMS5003;61530;51.158;0.880;2023-11-21T05:10:05;4;4;2
73305;PMS5003;61530;51.158;0.880;2023-11-21T05:11:05;4;4;3
73305;PMS5003;61530;51.158;0.880;2023-11-21T05:12:06;4;4;2
73305;PMS5003;61530;51.158;0.880;2023-11-21T05:13:06;5;5;2
73305;PMS5003;61530;51.158;0.880;2023-11-21T05:14:07;5;5;4
73305;PMS5003;61530;51.158;0.880;2023-11-21T05:15:08;5;5;3
73305;PMS5003;61530;51.158;0.880;2023-11-21T05:16:10;9;7;3
73305;PMS5003;61530;51.158;0.880;2023-11-21T05:17:12;5;4;3
73305;PMS5003;61530;51.158;0.880;2023-11-21T05:18:13;4;4;3
73305;PMS5003;61530;51.158;0.880;2023-11-21T05:19:13;6;4;3
73305;PMS5003;61530;51.158;0.880;2023-11-21T05:20:14;5;5;3
73305;PMS5003;61530;51.158;0.880;2023-11-21T05:21:14;5;5;3
73305;PMS5003;61530;51.158;0.880;2023-11-21T05:22:15;5;4;2
73305;PMS5003;61530;51.158;0.880;2023-11-21T05:23:15;7;6;3
73305;PMS5003;61530;51.158;0.880;2023-11-21T05:24:16;8;5;2
73305;PMS5003;61530;51.158;0.880;2023-11-21T05:25:16;5;5;3
73305;PMS5003;61530;51.158;0.880;2023-11-21T05:26:17;5;5;3
73305;PMS5003;61530;51.158;0.880;2023-11-21T05:27:22;6;6;3
73305;PMS5003;61530;51.158;0.880;2023-11-21T05:28:22;4;4;2
73305;PMS5003;61530;51.158;0.880;2023-11-21T05:29:25;6;6;3
73305;PMS5003;61530;51.158;0.880;2023-11-21T05:30:25;3;3;2
73305;PMS5003;61530;51.158;0.880;2023-11-21T05:31:26;4;4;3
73305;PMS5003;61530;51.158;0.880;2023-11-21T05:32:26;4;4;2
73305;PMS5003;61530;51.158;0.880;2023-11-21T05:33:27;4;4;3
73305;PMS5003;61530;51.158;0.880;2023-11-21T05:34:27;4;4;2
73305;PMS5003;61530;51.158;0.880;2023-11-21T05:35:28;3;3;2
73305;PMS5003;61530;51.158;0.880;2023-11-21T05:36:28;3;3;2
73305;PMS5003;61530;51.158;0.880;2023-11-21T05:37:29;7;6;2
73305;PMS5003;61530;51.158;0.880;2023-11-21T05:38:29;3;3;2
73305;PMS5003;61530;51.158;0.880;2023-11-21T05:39:30;5;4;2
73305;PMS5003;61530;51.158;0.880;2023-11-21T05:40:30;4;4;2
73305;PMS5003;61530;51.158;0.880;2023-11-21T05:41:31;3;3;2
73305;PMS5003;61530;51.158;0.880;2023-11-21T05:42:31;3;3;2
73305;PMS5003;61530;51.158;0.880;2023-11-21T05:43:32;3;3;2
73305;PMS5003;61530;51.158;0.880;2023-11-21T05:44:32;4;4;2
73305;PMS5003;61530;51.158;0.880;2023-11-21T05:45:33;4;4;3
73305;PMS5003;61530;51.158;0.880;2023-11-21T05:46:33;5;5;2
73305;PMS5003;61530;51.158;0.880;2023-11-21T05:47:34;4;4;2
73305;PMS5003;61530;51.158;0.880;2023-11-21T05:48:34;5;5;2
73305;PMS5003;61530;51.158;0.880;2023-11-21T05:49:35;4;3;1
73305;PMS5003;61530;51.158;0.880;2023-11-21T05:50:35;6;6;3
73305;PMS5003;61530;51.158;0.880;2023-11-21T05:51:36;4;4;3
73305;PMS5003;61530;51.158;0.880;2023-11-21T05:52:36;3;3;2
73305;PMS5003;61530;51.158;0.880;2023-11-21T05:53:37;4;4;3
73305;PMS5003;61530;51.158;0.880;2023-11-21T05:54:37;4;4;2
73305;PMS5003;61530;51.158;0.880;2023-11-21T05:55:38;5;5;3
73305;PMS5003;61530;51.158;0.880;2023-11-21T05:56:38;3;3;2
73305;PMS5003;61530;51.158;0.880;2023-11-21T05:57:39;8;6;3
73305;PMS5003;61530;51.158;0.880;2023-11-21T05:58:39;4;4;3
73305;PMS5003;61530;51.158;0.880;2023-11-21T05:59:40;5;5;3
73305;PMS5003;61530;51.158;0.880;2023-11-21T06:00:40;6;5;3
73305;PMS5003;61530;51.158;0.880;2023-11-21T06:01:41;4;4;3
73305;PMS5003;61530;51.158;0.880;2023-11-21T06:02:41;4;4;2
73305;PMS5003;61530;51.158;0.880;2023-11-21T06:03:42;3;3;2
73305;PMS5003;61530;51.158;0.880;2023-11-21T06:04:42;4;3;2
73305;PMS5003;61530;51.158;0.880;2023-11-21T06:05:43;3;3;2
73305;PMS5003;61530;51.158;0.880;2023-11-21T06:06:43;3;3;2
73305;PMS5003;61530;51.158;0.880;2023-11-21T06:07:44;4;4;3
73305;PMS5003;61530;51.158;0.880;2023-11-21T06:08:44;4;4;2
73305;PMS5003;61530;51.158;0.880;2023-11-21T06:09:45;5;5;2
73305;PMS5003;61530;51.158;0.880;2023-11-21T06:10:45;4;4;3
73305;PMS5003;61530;51.158;0.880;2023-11-21T06:11:46;5;4;2
73305;PMS5003;61530;51.158;0.880;2023-11-21T06:12:47;5;4;1
73305;PMS5003;61530;51.158;0.880;2023-11-21T06:13:47;3;3;3
73305;PMS5003;61530;51.158;0.880;2023-11-21T06:14:48;6;4;2
73305;PMS5003;61530;51.158;0.880;2023-11-21T06:15:48;6;5;1
73305;PMS5003;61530;51.158;0.880;2023-11-21T06:16:49;7;5;2
73305;PMS5003;61530;51.158;0.880;2023-11-21T06:17:49;4;4;2
73305;PMS5003;61530;51.158;0.880;2023-11-21T06:18:50;3;3;2
73305;PMS5003;61530;51.158;0.880;2023-11-21T06:19:50;3;3;2
73305;PMS5003;61530;51.158;0.880;2023-11-21T06:20:51;3;3;2
73305;PMS5003;61530;51.158;0.880;2023-11-21T06:21:51;2;2;1
73305;PMS5003;61530;51.158;0.880;2023-11-21T06:22:52;4;3;2
73305;PMS5003;61530;51.158;0.880;2023-11-21T06:23:52;2;2;2
73305;PMS5003;61530;51.158;0.880;2023-11-21T06:24:53;7;4;2
73305;PMS5003;61530;51.158;0.880;2023-11-21T06:25:53;2;2;1
73305;PMS5003;61530;51.158;0.880;2023-11-21T06:26:54;3;2;1
73305;PMS5003;61530;51.158;0.880;2023-11-21T06:27:54;2;2;1
73305;PMS5003;61530;51.158;0.880;2023-11-21T06:28:55;2;2;1
73305;PMS5003;61530;51.158;0.880;2023-11-21T06:29:55;2;2;1
73305;PMS5003;61530;51.158;0.880;2023-11-21T06:30:56;2;2;1
73305;PMS5003;61530;51.158;0.880;2023-11-21T06:31:56;2;2;1
73305;PMS5003;61530;51.158;0.880;2023-11-21T06:32:57;2;2;1
73305;PMS5003;61530;51.158;0.880;2023-11-21T06:34:14;4;2;1
73305;PMS5003;61530;51.158;0.880;2023-11-21T06:35:14;1;1;0
73305;PMS5003;61530;51.158;0.880;2023-11-21T06:36:15;2;2;1
73305;PMS5003;61530;51.158;0.880;2023-11-21T06:37:15;2;2;1
73305;PMS5003;61530;51.158;0.880;2023-11-21T06:38:16;2;2;1
73305;PMS5003;61530;51.158;0.880;2023-11-21T06:39:16;2;2;1
73305;PMS5003;61530;51.158;0.880;2023-11-21T06:40:17;1;1;1
73305;PMS5003;61530;51.158;0.880;2023-11-21T06:41:17;1;1;1